createdAt,value
2023-10-02T00:01:18.752Z,7.23
2023-10-02T00:03:49.520Z,7.00
2023-10-02T00:06:18.066Z,7.43
2023-10-02T00:08:50.745Z,7.53
2023-10-02T00:11:37.595Z,7.10
2023-10-02T00:14:26.967Z,8.17
2023-10-02T00:17:06.430Z,7.53
2023-10-02T00:19:42.378Z,7.63
2023-10-02T00:22:39.839Z,7.23
2023-10-02T00:25:08.723Z,6.87
2023-10-02T00:27:36.135Z,8.03
2023-10-02T00:30:08.635Z,7.97
2023-10-02T00:32:41.643Z,7.13
2023-10-02T00:35:13.399Z,8.03
2023-10-02T00:37:56.042Z,8.57
2023-10-02T00:40:24.827Z,8.23
2023-10-02T00:42:57.017Z,7.67
2023-10-02T00:45:25.873Z,7.20
2023-10-02T00:47:54.758Z,7.50
2023-10-02T00:50:26.435Z,7.67
2023-10-02T00:53:00.298Z,8.03
2023-10-02T00:55:28.674Z,7.33
2023-10-02T00:58:00.461Z,9.67
2023-10-02T01:00:32.871Z,7.83
2023-10-02T01:03:05.326Z,8.00
2023-10-02T01:05:43.860Z,7.60
2023-10-02T01:08:26.920Z,7.33
2023-10-02T01:11:04.170Z,8.30
2023-10-02T01:13:34.195Z,7.80
2023-10-02T01:16:05.578Z,7.40
2023-10-02T01:18:34.464Z,7.57
2023-10-02T01:21:02.856Z,8.03
2023-10-02T01:23:32.588Z,6.70
2023-10-02T01:26:03.163Z,7.30
2023-10-02T01:28:30.876Z,7.13
2023-10-02T01:30:58.055Z,7.50
2023-10-02T01:33:28.195Z,8.03
2023-10-02T01:36:00.683Z,8.13
2023-10-02T01:38:28.704Z,8.93
2023-10-02T01:40:56.308Z,9.73
2023-10-02T01:43:25.882Z,9.80
2023-10-02T01:45:58.286Z,10.27
2023-10-02T01:48:38.481Z,9.07
2023-10-02T01:51:28.152Z,8.20
2023-10-02T01:54:00.236Z,9.00
2023-10-02T01:56:30.879Z,9.73
2023-10-02T01:59:15.882Z,7.83
2023-10-02T02:01:58.371Z,7.53
2023-10-02T02:04:34.342Z,7.23
2023-10-02T02:07:03.610Z,6.67
2023-10-02T02:09:33.124Z,7.03
2023-10-02T02:12:08.088Z,6.03
2023-10-02T02:14:43.266Z,6.93
2023-10-02T02:17:12.129Z,6.97
2023-10-02T02:19:49.617Z,6.60
2023-10-02T02:22:27.335Z,6.70
2023-10-02T02:24:55.971Z,5.80
2023-10-02T02:27:23.220Z,6.90
2023-10-02T02:29:51.652Z,6.17
2023-10-02T02:32:21.060Z,6.70
2023-10-02T02:35:02.213Z,7.00
2023-10-02T02:37:30.199Z,6.53
2023-10-02T02:40:17.500Z,7.17
2023-10-02T02:42:47.215Z,5.70
2023-10-02T02:45:29.563Z,5.70
2023-10-02T02:47:58.921Z,6.00
2023-10-02T02:50:29.417Z,5.67
2023-10-02T02:53:16.234Z,6.10
2023-10-02T02:55:43.324Z,5.40
2023-10-02T02:58:10.369Z,6.57
2023-10-02T03:00:40.954Z,5.87
2023-10-02T03:03:27.402Z,6.23
2023-10-02T03:05:54.859Z,5.53
2023-10-02T03:08:23.432Z,5.33
2023-10-02T03:10:58.498Z,6.20
2023-10-02T03:13:29.649Z,6.17
2023-10-02T03:15:58.273Z,5.97
2023-10-02T03:18:37.427Z,5.90
2023-10-02T03:21:12.180Z,5.07
2023-10-02T03:23:40.881Z,4.93
2023-10-02T03:26:35.466Z,5.80
2023-10-02T03:29:12.739Z,5.63
2023-10-02T03:31:51.234Z,6.03
2023-10-02T03:34:30.825Z,5.77
2023-10-02T03:37:12.170Z,6.60
2023-10-02T03:39:53.448Z,5.77
2023-10-02T03:42:24.521Z,5.90
2023-10-02T03:44:57.571Z,5.80
2023-10-02T03:47:31.845Z,5.73
2023-10-02T03:50:03.655Z,5.40
2023-10-02T03:52:33.670Z,5.57
2023-10-02T03:55:15.996Z,6.23
2023-10-02T03:57:56.262Z,5.77
2023-10-02T04:00:25.525Z,6.00
2023-10-02T04:02:57.887Z,5.47
2023-10-02T04:05:55.552Z,6.10
2023-10-02T04:08:38.067Z,5.60
2023-10-02T04:11:05.307Z,6.23
2023-10-02T04:13:40.150Z,5.63
2023-10-02T04:16:25.716Z,5.63
2023-10-02T04:19:03.937Z,5.57
2023-10-02T04:21:34.649Z,6.50
2023-10-02T04:24:05.666Z,6.83
2023-10-02T04:26:34.895Z,6.07
2023-10-02T04:29:20.612Z,6.07
2023-10-02T04:32:05.959Z,5.63
2023-10-02T04:34:38.052Z,5.33
2023-10-02T04:37:21.137Z,6.83
2023-10-02T04:40:15.196Z,6.10
2023-10-02T04:43:16.260Z,6.10
2023-10-02T04:45:45.499Z,6.53
2023-10-02T04:48:13.083Z,5.97
2023-10-02T04:50:48.841Z,7.33
2023-10-02T04:53:16.798Z,6.07
2023-10-02T04:55:45.671Z,7.07
2023-10-02T04:58:16.008Z,6.63
2023-10-02T05:01:03.516Z,6.10
2023-10-02T05:03:39.451Z,7.33
2023-10-02T05:06:07.903Z,6.20
2023-10-02T05:08:42.281Z,6.00
2023-10-02T05:11:25.169Z,6.73
2023-10-02T05:14:01.010Z,7.50
2023-10-02T05:16:36.785Z,6.33
2023-10-02T05:19:11.007Z,5.97
2023-10-02T05:21:50.796Z,6.33
2023-10-02T05:24:19.563Z,6.17
2023-10-02T05:26:48.007Z,5.00
2023-10-02T05:29:37.624Z,5.33
2023-10-02T05:32:20.664Z,5.60
2023-10-02T05:35:04.982Z,5.57
2023-10-02T05:37:41.951Z,5.57
2023-10-02T05:40:19.591Z,5.05
2023-10-02T05:43:10.865Z,5.73
2023-10-02T05:45:41.120Z,5.70
2023-10-02T05:48:16.350Z,5.40
2023-10-02T05:50:50.059Z,5.50
2023-10-02T05:53:17.634Z,4.70
2023-10-02T05:56:03.968Z,5.35
2023-10-02T05:58:33.804Z,4.73
2023-10-02T06:01:19.856Z,6.40
2023-10-02T06:03:58.620Z,6.00
2023-10-02T06:06:29.265Z,4.97
2023-10-02T06:09:05.045Z,5.30
2023-10-02T06:11:35.530Z,6.40
2023-10-02T06:14:12.441Z,5.53
2023-10-02T06:16:43.808Z,4.43
2023-10-02T06:19:15.541Z,6.20
2023-10-02T06:21:48.729Z,4.35
2023-10-02T06:24:20.721Z,5.07
2023-10-02T06:26:51.193Z,4.75
2023-10-02T06:29:24.229Z,5.32
2023-10-02T06:32:04.490Z,4.35
2023-10-02T06:34:38.786Z,4.85
2023-10-02T06:37:08.568Z,5.40
2023-10-02T06:39:41.211Z,4.55
2023-10-02T06:42:17.113Z,5.13
2023-10-02T06:44:54.057Z,4.55
2023-10-02T06:47:25.938Z,5.20
2023-10-02T06:49:53.825Z,6.45
2023-10-02T06:52:22.082Z,6.25
2023-10-02T06:54:50.622Z,4.88
2023-10-02T06:57:19.529Z,5.25
2023-10-02T06:59:54.090Z,4.47
2023-10-02T07:02:23.256Z,5.57
2023-10-02T07:04:53.819Z,5.03
2023-10-02T07:07:27.228Z,5.25
2023-10-02T07:09:56.360Z,5.75
2023-10-02T07:12:29.474Z,4.55
2023-10-02T07:15:12.279Z,4.35
2023-10-02T07:17:50.178Z,4.70
2023-10-02T07:20:23.101Z,4.57
2023-10-02T07:22:52.615Z,4.18
2023-10-02T07:25:25.724Z,4.88
2023-10-02T07:27:53.663Z,4.50
2023-10-02T07:30:28.480Z,4.82
2023-10-02T07:33:04.796Z,4.55
2023-10-02T07:35:34.388Z,4.07
2023-10-02T07:38:01.485Z,4.35
2023-10-02T07:40:48.005Z,4.68
2023-10-02T07:43:19.732Z,5.07
2023-10-02T07:46:03.250Z,3.97
2023-10-02T07:48:37.845Z,3.90
2023-10-02T07:51:08.286Z,3.97
2023-10-02T07:53:41.804Z,4.80
2023-10-02T07:56:17.831Z,4.32
2023-10-02T07:58:55.823Z,3.95
2023-10-02T08:01:35.390Z,3.95
2023-10-02T08:04:03.663Z,4.20
2023-10-02T08:06:52.229Z,4.43
2023-10-02T08:09:38.907Z,4.00
2023-10-02T08:12:09.595Z,3.83
2023-10-02T08:14:39.919Z,4.13
2023-10-02T08:17:19.714Z,3.78
2023-10-02T08:19:58.016Z,3.90
2023-10-02T08:22:28.201Z,3.53
2023-10-02T08:24:57.360Z,3.45
2023-10-02T08:27:24.274Z,3.92
2023-10-02T08:29:51.083Z,2.97
2023-10-02T08:32:30.009Z,3.15
2023-10-02T08:34:58.597Z,3.38
2023-10-02T08:37:27.124Z,3.28
2023-10-02T08:39:54.097Z,3.28
2023-10-02T08:42:25.503Z,2.88
2023-10-02T08:44:59.753Z,3.08
2023-10-02T08:47:27.365Z,2.88
2023-10-02T08:50:04.617Z,2.90
2023-10-02T08:52:48.421Z,2.92
2023-10-02T08:55:36.195Z,3.30
2023-10-02T08:58:17.850Z,3.00
2023-10-02T09:01:09.916Z,2.92
2023-10-02T09:04:04.976Z,2.97
2023-10-02T09:06:42.736Z,2.90
2023-10-02T09:09:23.020Z,3.65
2023-10-02T09:11:54.246Z,2.45
2023-10-02T09:14:24.868Z,2.80
2023-10-02T09:17:29.762Z,2.80
2023-10-02T09:20:04.961Z,3.00
2023-10-02T09:22:39.338Z,3.47
2023-10-02T09:25:19.375Z,3.17
2023-10-02T09:28:01.960Z,2.08
2023-10-02T09:30:40.907Z,2.83
2023-10-02T09:33:33.572Z,2.40
2023-10-02T09:36:38.708Z,2.33
2023-10-02T09:39:20.157Z,2.13
2023-10-02T09:41:48.039Z,3.20
2023-10-02T09:44:22.652Z,2.65
2023-10-02T09:46:53.288Z,2.67
2023-10-02T09:49:31.104Z,2.70
2023-10-02T09:52:17.264Z,2.58
2023-10-02T09:54:53.022Z,3.53
2023-10-02T09:57:27.125Z,2.38
2023-10-02T09:59:56.480Z,2.53
2023-10-02T10:02:24.427Z,2.83
2023-10-02T10:05:12.339Z,2.50
2023-10-02T10:08:02.913Z,2.25
2023-10-02T10:10:48.365Z,1.95
2023-10-02T10:13:35.382Z,2.45
2023-10-02T10:16:20.176Z,2.50
2023-10-02T10:19:08.463Z,2.70
2023-10-02T10:21:59.085Z,2.80
2023-10-02T10:25:04.401Z,2.45
2023-10-02T10:27:40.917Z,2.35
2023-10-02T10:30:29.600Z,2.95
2023-10-02T10:33:02.992Z,2.72
2023-10-02T10:35:34.750Z,3.38
2023-10-02T10:38:05.736Z,2.92
2023-10-02T10:40:57.232Z,2.53
2023-10-02T10:43:43.084Z,2.67
2023-10-02T10:46:14.836Z,2.58
2023-10-02T10:48:49.610Z,3.00
2023-10-02T10:51:23.590Z,2.78
2023-10-02T10:54:01.871Z,2.47
2023-10-02T10:56:29.376Z,3.20
2023-10-02T10:59:12.452Z,3.17
2023-10-02T11:02:11.292Z,3.33
2023-10-02T11:04:41.680Z,3.53
2023-10-02T11:07:20.983Z,2.92
2023-10-02T11:10:16.441Z,3.33
2023-10-02T11:12:57.636Z,2.67
2023-10-02T11:15:47.335Z,3.38
2023-10-02T11:18:22.267Z,2.78
2023-10-02T11:20:52.035Z,3.15
2023-10-02T11:23:30.457Z,3.15
2023-10-02T11:25:59.716Z,3.30
2023-10-02T11:28:33.642Z,3.30
2023-10-02T11:31:38.033Z,3.47
2023-10-02T11:34:31.727Z,3.85
2023-10-02T11:36:56.913Z,2.63
2023-10-02T11:39:35.018Z,2.80
2023-10-02T11:42:01.881Z,2.67
2023-10-02T11:44:29.346Z,2.83
2023-10-02T11:46:56.551Z,2.30
2023-10-02T11:49:23.494Z,3.05
2023-10-02T11:51:50.356Z,2.30
2023-10-02T11:54:18.879Z,2.78
2023-10-02T11:56:48.162Z,2.67
2023-10-02T11:59:16.118Z,3.42
2023-10-02T12:01:46.547Z,2.88
2023-10-02T12:04:13.889Z,2.75
2023-10-02T12:06:40.982Z,3.08
2023-10-02T12:09:08.252Z,3.05
2023-10-02T12:11:35.837Z,2.53
2023-10-02T12:14:04.441Z,2.78
2023-10-02T12:16:32.081Z,2.03
2023-10-02T12:18:59.127Z,2.55
2023-10-02T12:21:26.402Z,2.03
2023-10-02T12:23:53.488Z,1.95
2023-10-02T12:26:29.012Z,2.58
2023-10-02T12:28:56.737Z,2.40
2023-10-02T12:31:24.649Z,2.53
2023-10-02T12:33:54.824Z,2.67
2023-10-02T12:36:23.596Z,2.13
2023-10-02T12:38:52.071Z,2.30
2023-10-02T12:41:21.336Z,2.05
2023-10-02T12:43:56.983Z,2.30
2023-10-02T12:46:26.353Z,2.28
2023-10-02T12:48:53.651Z,2.03
2023-10-02T12:51:20.844Z,2.08
2023-10-02T12:53:47.779Z,2.13
2023-10-02T12:56:22.234Z,1.92
2023-10-02T12:58:50.522Z,2.13
2023-10-02T13:01:18.256Z,2.53
2023-10-02T13:03:46.677Z,2.75
2023-10-02T13:06:14.833Z,2.50
2023-10-02T13:08:45.791Z,1.98
2023-10-02T13:11:14.800Z,2.75
2023-10-02T13:13:45.885Z,2.20
2023-10-02T13:16:16.549Z,1.88
2023-10-02T13:18:47.021Z,2.25
2023-10-02T13:21:20.873Z,1.67
2023-10-02T13:23:49.849Z,2.15
2023-10-02T13:26:17.938Z,1.90
2023-10-02T13:28:55.615Z,2.00
2023-10-02T13:31:24.234Z,1.80
2023-10-02T13:33:54.661Z,2.15
2023-10-02T13:36:25.673Z,2.10
2023-10-02T13:38:55.261Z,2.10
2023-10-02T13:41:23.184Z,1.98
2023-10-02T13:43:51.838Z,1.90
2023-10-02T13:46:21.429Z,1.77
2023-10-02T13:48:49.658Z,1.85
2023-10-02T13:51:19.749Z,1.73
2023-10-02T13:53:48.266Z,2.20
2023-10-02T13:56:21.959Z,1.85
2023-10-02T13:58:52.103Z,1.80
2023-10-02T14:01:21.253Z,1.75
2023-10-02T14:03:53.313Z,2.15
2023-10-02T14:06:25.491Z,1.95
2023-10-02T14:08:55.912Z,2.08
2023-10-02T14:11:24.780Z,2.33
2023-10-02T14:13:55.145Z,1.85
2023-10-02T14:16:22.539Z,1.60
2023-10-02T14:18:53.433Z,1.83
2023-10-02T14:21:25.166Z,2.40
2023-10-02T14:23:54.377Z,1.90
2023-10-02T14:26:23.896Z,2.05
2023-10-02T14:28:55.076Z,2.20
2023-10-02T14:31:31.212Z,2.00
2023-10-02T14:33:59.354Z,1.85
2023-10-02T14:36:27.287Z,1.98
2023-10-02T14:38:58.790Z,1.83
2023-10-02T14:41:28.038Z,1.92
2023-10-02T14:43:55.917Z,1.73
2023-10-02T14:46:25.447Z,2.67
2023-10-02T14:48:53.738Z,1.88
2023-10-02T14:51:21.033Z,1.90
2023-10-02T14:53:48.038Z,2.00
2023-10-02T14:56:15.066Z,2.03
2023-10-02T14:58:48.788Z,2.38
2023-10-02T15:01:19.817Z,1.85
2023-10-02T15:03:49.705Z,2.47
2023-10-02T15:06:17.044Z,1.77
2023-10-02T15:08:44.033Z,2.15
2023-10-02T15:11:16.336Z,2.38
2023-10-02T15:13:44.734Z,2.88
2023-10-02T15:16:16.859Z,2.33
2023-10-02T15:18:47.325Z,2.00
2023-10-02T15:21:18.554Z,2.55
2023-10-02T15:23:46.548Z,2.20
2023-10-02T15:26:13.554Z,1.85
2023-10-02T15:28:41.716Z,2.88
2023-10-02T15:31:09.039Z,1.75
2023-10-02T15:33:37.891Z,2.05
2023-10-02T15:36:05.438Z,1.98
2023-10-02T15:38:32.926Z,1.98
2023-10-02T15:41:03.075Z,1.90
2023-10-02T15:43:30.591Z,1.73
2023-10-02T15:45:59.846Z,2.10
2023-10-02T15:48:27.583Z,2.38
2023-10-02T15:50:55.361Z,3.35
2023-10-02T15:53:25.813Z,3.28
2023-10-02T15:55:53.447Z,2.90
2023-10-02T15:58:20.462Z,3.25
2023-10-02T16:00:51.000Z,3.35
2023-10-02T16:03:18.333Z,3.40
2023-10-02T16:05:48.034Z,3.22
2023-10-02T16:08:15.119Z,3.90
2023-10-02T16:10:42.149Z,3.30
2023-10-02T16:13:09.146Z,3.33
2023-10-02T16:15:36.846Z,3.00
2023-10-02T16:18:06.491Z,3.40
2023-10-02T16:20:33.982Z,3.45
2023-10-02T16:23:01.739Z,5.72
2023-10-02T16:25:31.641Z,3.97
2023-10-02T16:27:59.416Z,4.88
2023-10-02T16:30:27.805Z,4.00
2023-10-02T16:32:56.037Z,3.92
2023-10-02T16:35:35.020Z,4.22
2023-10-02T16:38:05.220Z,3.78
2023-10-02T16:40:34.798Z,3.85
2023-10-02T16:43:05.648Z,4.47
2023-10-02T16:45:33.287Z,6.57
2023-10-02T16:48:03.803Z,6.45
2023-10-02T16:50:31.873Z,6.82
2023-10-02T16:52:59.215Z,8.68
2023-10-02T16:55:31.236Z,14.45
2023-10-02T16:57:58.736Z,9.50
2023-10-02T17:00:27.301Z,6.38
2023-10-02T17:02:59.363Z,5.22
2023-10-02T17:05:27.136Z,3.88
2023-10-02T17:07:55.650Z,3.92
2023-10-02T17:10:23.590Z,3.10
2023-10-02T17:13:03.096Z,3.35
2023-10-02T17:15:31.390Z,3.03
2023-10-02T17:17:59.518Z,3.25
2023-10-02T17:20:27.413Z,3.35
2023-10-02T17:22:55.488Z,3.65
2023-10-02T17:25:26.631Z,3.78
2023-10-02T17:27:56.517Z,3.83
2023-10-02T17:30:24.301Z,3.72
2023-10-02T17:32:52.015Z,4.72
2023-10-02T17:35:19.132Z,4.53
2023-10-02T17:37:46.150Z,4.28
2023-10-02T17:40:13.705Z,5.80
2023-10-02T17:42:41.080Z,5.78
2023-10-02T17:45:09.539Z,6.60
2023-10-02T17:47:37.597Z,6.00
2023-10-02T17:50:08.842Z,5.78
2023-10-02T17:52:36.032Z,6.45
2023-10-02T17:55:04.413Z,6.28
2023-10-02T17:57:31.520Z,5.20
2023-10-02T18:00:02.307Z,6.13
2023-10-02T18:02:29.695Z,6.00
2023-10-02T18:04:56.670Z,6.15
2023-10-02T18:07:24.288Z,6.35
2023-10-02T18:09:58.890Z,6.15
2023-10-02T18:12:25.925Z,5.85
2023-10-02T18:14:53.605Z,5.38
2023-10-02T18:17:20.870Z,5.10
2023-10-02T18:19:48.710Z,5.43
2023-10-02T18:22:16.304Z,5.88
2023-10-02T18:24:43.976Z,6.03
2023-10-02T18:27:11.775Z,5.15
2023-10-02T18:29:39.331Z,5.43
2023-10-02T18:32:06.744Z,5.65
2023-10-02T18:34:43.636Z,5.47
2023-10-02T18:37:12.524Z,5.47
2023-10-02T18:39:39.942Z,5.55
2023-10-02T18:42:07.655Z,5.38
2023-10-02T18:44:35.880Z,5.10
2023-10-02T18:47:03.765Z,5.30
2023-10-02T18:49:33.962Z,6.50
2023-10-02T18:52:02.616Z,5.30
2023-10-02T18:54:29.770Z,5.72
2023-10-02T18:57:02.208Z,5.38
2023-10-02T18:59:29.288Z,5.85
2023-10-02T19:01:56.264Z,5.22
2023-10-02T19:04:23.392Z,5.55
2023-10-02T19:06:50.519Z,6.00
2023-10-02T19:09:21.577Z,5.35
2023-10-02T19:11:49.180Z,5.53
2023-10-02T19:14:18.700Z,5.95
2023-10-02T19:16:45.771Z,6.18
2023-10-02T19:19:12.748Z,6.15
2023-10-02T19:21:39.830Z,6.82
2023-10-02T19:24:07.940Z,6.68
2023-10-02T19:26:37.273Z,7.00
2023-10-02T19:29:04.752Z,7.70
2023-10-02T19:31:31.983Z,6.85
2023-10-02T19:33:59.299Z,7.13
2023-10-02T19:36:26.409Z,6.97
2023-10-02T19:38:53.554Z,7.60
2023-10-02T19:41:21.136Z,7.45
2023-10-02T19:43:54.046Z,8.32
2023-10-02T19:46:23.078Z,5.85
2023-10-02T19:48:52.397Z,6.68
2023-10-02T19:51:19.836Z,6.03
2023-10-02T19:53:47.046Z,6.38
2023-10-02T19:56:15.378Z,6.80
2023-10-02T19:58:43.206Z,6.38
2023-10-02T20:01:10.935Z,6.38
2023-10-02T20:03:38.103Z,7.03
2023-10-02T20:06:12.632Z,6.32
2023-10-02T20:08:40.584Z,6.40
2023-10-02T20:11:08.259Z,6.55
2023-10-02T20:13:36.889Z,6.25
2023-10-02T20:16:05.250Z,5.45
2023-10-02T20:18:32.493Z,5.85
2023-10-02T20:21:00.022Z,5.30
2023-10-02T20:23:41.096Z,6.65
2023-10-02T20:26:12.869Z,6.45
2023-10-02T20:28:40.095Z,6.63
2023-10-02T20:31:12.192Z,6.70
2023-10-02T20:33:41.158Z,6.65
2023-10-02T20:36:08.955Z,6.22
2023-10-02T20:38:36.017Z,5.78
2023-10-02T20:41:02.908Z,6.75
2023-10-02T20:43:30.021Z,6.07
2023-10-02T20:45:56.916Z,6.78
2023-10-02T20:48:24.216Z,5.80
2023-10-02T20:50:52.381Z,6.80
2023-10-02T20:53:19.303Z,6.07
2023-10-02T20:55:53.535Z,5.50
2023-10-02T20:58:21.048Z,5.70
2023-10-02T21:00:48.111Z,6.68
2023-10-02T21:03:17.361Z,6.18
2023-10-02T21:05:45.829Z,6.45
2023-10-02T21:08:15.148Z,5.65
2023-10-02T21:10:42.322Z,6.50
2023-10-02T21:13:09.611Z,5.82
2023-10-02T21:15:37.122Z,5.88
2023-10-02T21:18:06.577Z,6.43
2023-10-02T21:20:34.698Z,5.35
2023-10-02T21:23:02.024Z,5.90
2023-10-02T21:25:29.173Z,5.47
2023-10-02T21:27:56.145Z,5.80
2023-10-02T21:30:23.512Z,5.72
2023-10-02T21:32:50.795Z,6.07
2023-10-02T21:35:19.002Z,5.60
2023-10-02T21:37:46.189Z,5.30
2023-10-02T21:40:14.124Z,5.72
2023-10-02T21:42:41.698Z,6.05
2023-10-02T21:45:11.163Z,5.63
2023-10-02T21:47:38.970Z,5.78
2023-10-02T21:50:07.769Z,5.47
2023-10-02T21:52:40.848Z,5.75
2023-10-02T21:55:10.549Z,5.10
2023-10-02T21:57:38.611Z,5.82
2023-10-02T22:00:29.045Z,6.13
2023-10-02T22:02:56.299Z,6.45
2023-10-02T22:05:23.525Z,5.72
2023-10-02T22:07:50.580Z,6.22
2023-10-02T22:10:18.557Z,5.60
2023-10-02T22:12:45.448Z,7.20
2023-10-02T22:15:18.087Z,5.50
2023-10-02T22:17:51.796Z,6.03
2023-10-02T22:20:20.346Z,5.72
2023-10-02T22:22:47.728Z,6.07
2023-10-02T22:25:19.478Z,6.30
2023-10-02T22:27:46.652Z,6.13
2023-10-02T22:30:15.897Z,5.68
2023-10-02T22:32:44.193Z,6.18
2023-10-02T22:35:12.490Z,5.43
2023-10-02T22:37:43.290Z,4.82
2023-10-02T22:40:22.242Z,5.93
2023-10-02T22:42:54.040Z,5.82
2023-10-02T22:45:22.627Z,5.43
2023-10-02T22:47:53.898Z,5.70
2023-10-02T22:50:23.299Z,5.32
2023-10-02T22:52:52.076Z,6.53
2023-10-02T22:55:23.839Z,5.22
2023-10-02T22:57:52.643Z,5.78
2023-10-02T23:00:21.836Z,5.35
2023-10-02T23:02:52.468Z,5.60
2023-10-02T23:05:20.678Z,5.57
2023-10-02T23:07:48.661Z,5.60
2023-10-02T23:10:19.530Z,5.75
2023-10-02T23:12:47.939Z,4.82
2023-10-02T23:15:16.265Z,5.28
2023-10-02T23:17:44.696Z,4.72
2023-10-02T23:20:14.418Z,4.93
2023-10-02T23:22:44.085Z,4.68
2023-10-02T23:25:13.392Z,5.28
2023-10-02T23:27:45.415Z,5.40
2023-10-02T23:30:21.812Z,5.97
2023-10-02T23:32:51.413Z,4.72
2023-10-02T23:35:19.657Z,4.57
2023-10-02T23:37:53.025Z,5.63
2023-10-02T23:40:21.751Z,5.03
2023-10-02T23:43:01.414Z,4.70
2023-10-02T23:45:29.191Z,4.88
2023-10-02T23:48:02.142Z,4.75
2023-10-02T23:50:44.276Z,4.82
2023-10-02T23:53:15.513Z,4.47
2023-10-02T23:55:43.004Z,4.88
2023-10-02T23:58:10.174Z,5.07
